Time;durP1;ratioP1;P1;durP2;ratioP2;P2;SDS_P1;SDS_P2;PMS_P1;PMS_P2;Temp;Humidity;BMP_temperature;BMP_pressure;BME280_temperature;BME280_humidity;BME280_pressure;Samples;Min_cycle;Max_cycle;Signal;HPM_P1;HPM_P2
2022/08/27 00:02:23;;;;;;;0.38;0.38;;;;;;;18.68;81.51;100419.13;5126846;28;20037;-69
2022/08/27 00:04:49;;;;;;;0.63;0.63;;;;;;;18.71;81.56;100428.63;5127033;28;20035;-69
2022/08/27 00:07:14;;;;;;;0.30;0.30;;;;;;;18.71;81.41;100420.75;5126973;28;20027;-69
2022/08/27 00:09:40;;;;;;;0.20;0.20;;;;;;;18.73;81.44;100431.19;5126879;28;20038;-69
2022/08/27 00:12:06;;;;;;;0.20;0.20;;;;;;;18.72;81.60;100433.00;5126714;28;20025;-69
2022/08/27 00:14:33;;;;;;;0.30;0.30;;;;;;;18.73;81.73;100420.69;5108651;28;20031;-68
2022/08/27 00:16:58;;;;;;;1.75;1.25;;;;;;;18.70;81.92;100419.91;5126706;28;20049;-68
2022/08/27 00:19:24;;;;;;;0.30;0.30;;;;;;;18.72;81.80;100422.47;5126739;28;20028;-69
2022/08/27 00:21:49;;;;;;;1.15;1.05;;;;;;;18.72;82.11;100416.34;5126595;28;20023;-69
2022/08/27 00:24:15;;;;;;;0.30;0.30;;;;;;;18.75;81.89;100419.72;5126743;28;20407;-69
2022/08/27 00:26:41;;;;;;;0.50;0.50;;;;;;;18.73;81.98;100426.81;5126776;28;20020;-69
2022/08/27 00:29:07;;;;;;;0.22;0.22;;;;;;;18.69;82.06;100412.09;5126824;28;20020;-69
2022/08/27 00:31:33;;;;;;;0.20;0.20;;;;;;;18.65;82.24;100415.75;5126261;28;20020;-69
2022/08/27 00:33:59;;;;;;;0.25;0.25;;;;;;;18.64;82.69;100406.16;5108337;28;20049;-69
2022/08/27 00:36:24;;;;;;;0.30;0.30;;;;;;;18.64;82.76;100406.16;5126654;28;20027;-69
2022/08/27 00:38:50;;;;;;;0.20;0.20;;;;;;;18.64;82.61;100403.53;5127974;28;20031;-70
2022/08/27 00:41:17;;;;;;;0.30;0.30;;;;;;;18.69;82.62;100399.78;5127408;28;20028;-69
2022/08/27 00:43:58;;;;;;;0.20;0.20;;;;;;;18.67;82.55;100398.16;5126530;28;20051;-68
2022/08/27 00:46:49;;;;;;;0.20;0.20;;;;;;;18.66;82.67;100391.16;5126494;28;20439;-70
2022/08/27 00:49:18;;;;;;;1.13;1.05;;;;;;;18.65;82.41;100386.84;5126433;28;20019;-69
2022/08/27 00:51:56;;;;;;;0.30;0.30;;;;;;;18.64;82.47;100390.41;5126356;28;20027;-70
2022/08/27 00:54:23;;;;;;;0.20;0.20;;;;;;;18.70;82.74;100400.66;5126755;28;20023;-69
2022/08/27 00:56:49;;;;;;;1.20;0.88;;;;;;;18.69;82.56;100389.25;5126817;28;20020;-69
2022/08/27 00:59:16;;;;;;;0.30;0.30;;;;;;;18.71;82.26;100399.72;5127987;28;20023;-69
2022/08/27 01:02:30;;;;;;;0.20;0.20;;;;;;;18.74;82.16;100402.22;5126867;28;20026;-68
2022/08/27 01:04:33;;;;;;;0.20;0.20;;;;;;;18.75;81.51;100403.94;5112477;28;20046;-69
2022/08/27 01:07:00;;;;;;;0.20;0.20;;;;;;;18.80;81.16;100401.94;5125756;28;20552;-69
2022/08/27 01:09:26;;;;;;;0.20;0.20;;;;;;;18.77;81.11;100396.81;5126188;28;20034;-71
2022/08/27 01:11:54;;;;;;;1.95;1.38;;;;;;;18.78;81.16;100409.06;5107868;28;20034;-69
2022/08/27 01:14:20;;;;;;;0.50;0.50;;;;;;;18.80;81.03;100409.00;5126142;28;20031;-68
2022/08/27 01:16:50;;;;;;;0.50;0.50;;;;;;;18.80;81.30;100414.25;5125773;28;20092;-68
2022/08/27 01:19:42;;;;;;;0.65;0.65;;;;;;;18.80;81.04;100416.88;5126145;28;20051;-69
2022/08/27 01:22:42;;;;;;;0.30;0.30;;;;;;;18.76;80.90;100412.66;5125766;28;20367;-68
2022/08/27 01:25:10;;;;;;;0.30;0.30;;;;;;;18.77;80.65;100415.22;5083995;28;20031;-69
2022/08/27 01:27:38;;;;;;;0.30;0.30;;;;;;;18.78;80.45;100418.72;5125796;28;20191;-70
2022/08/27 01:30:05;;;;;;;0.20;0.20;;;;;;;18.75;79.94;100410.97;5125694;28;20024;-69
2022/08/27 01:32:33;;;;;;;0.20;0.20;;;;;;;18.73;79.79;100415.44;5125742;28;20041;-69
2022/08/27 01:35:01;;;;;;;0.30;0.30;;;;;;;18.72;79.72;100419.84;5126052;28;20074;-69
2022/08/27 01:37:27;;;;;;;0.20;0.20;;;;;;;18.69;79.31;100420.81;5125781;28;20023;-69
2022/08/27 01:39:54;;;;;;;1.45;1.35;;;;;;;18.66;79.26;100417.44;5125724;28;20043;-69
2022/08/27 01:42:35;;;;;;;0.50;0.50;;;;;;;18.66;78.89;100413.06;5125846;28;20128;-69
2022/08/27 01:45:25;;;;;;;0.43;0.43;;;;;;;18.71;79.44;100418.13;5125529;28;20057;-68
2022/08/27 01:47:51;;;;;;;0.20;0.20;;;;;;;18.78;79.42;100421.34;5125551;28;20087;-68
2022/08/27 01:50:23;;;;;;;0.30;0.30;;;;;;;18.81;79.41;100414.19;5125680;28;20031;-68
2022/08/27 01:52:49;;;;;;;0.22;0.22;;;;;;;18.85;78.98;100416.69;5125600;28;20031;-69
2022/08/27 01:55:18;;;;;;;0.20;0.20;;;;;;;18.85;79.01;100417.53;5125637;28;20060;-69
2022/08/27 01:57:45;;;;;;;1.90;1.80;;;;;;;18.85;78.49;100414.91;5125666;28;20201;-69
2022/08/27 02:00:16;;;;;;;0.30;0.30;;;;;;;18.82;78.49;100415.03;5125213;28;20083;-68
2022/08/27 02:02:41;;;;;;;0.30;0.30;;;;;;;18.80;78.42;100412.47;5106735;28;20388;-68
2022/08/27 02:05:07;;;;;;;0.20;0.20;;;;;;;18.81;78.24;100408.94;5125571;28;20026;-69
2022/08/27 02:07:33;;;;;;;0.30;0.30;;;;;;;18.83;77.94;100403.59;5125389;28;20356;-69
2022/08/27 02:09:58;;;;;;;0.20;0.20;;;;;;;18.80;77.88;100399.31;5125422;28;20490;-69
2022/08/27 02:12:23;;;;;;;0.30;0.30;;;;;;;18.78;77.82;100400.31;5125278;28;20027;-69
2022/08/27 02:14:49;;;;;;;0.30;0.30;;;;;;;18.71;77.88;100402.34;5125216;28;20087;-68
2022/08/27 02:17:14;;;;;;;0.30;0.30;;;;;;;18.65;77.74;100402.59;5106664;28;20020;-68
2022/08/27 02:19:39;;;;;;;0.30;0.30;;;;;;;18.63;78.15;100412.31;5127861;28;20023;-68
2022/08/27 02:22:05;;;;;;;0.30;0.30;;;;;;;18.61;78.03;100415.03;5128910;28;20020;-68
2022/08/27 02:24:31;;;;;;;0.20;0.20;;;;;;;18.61;77.88;100411.56;5128904;28;20027;-68
2022/08/27 02:26:57;;;;;;;0.20;0.20;;;;;;;18.48;77.94;100406.81;5128983;28;20174;-68
2022/08/27 02:29:23;;;;;;;0.40;0.40;;;;;;;18.43;78.19;100403.53;5128831;28;20054;-68
2022/08/27 02:31:49;;;;;;;0.43;0.43;;;;;;;18.38;77.87;100390.56;5128483;28;20046;-68
2022/08/27 02:34:15;;;;;;;0.30;0.30;;;;;;;18.38;77.71;100392.34;5128847;28;20320;-68
2022/08/27 02:36:41;;;;;;;0.28;0.28;;;;;;;18.36;78.09;100394.16;5128677;28;20047;-68
2022/08/27 02:39:06;;;;;;;0.30;0.30;;;;;;;18.31;77.52;100395.22;5128421;28;20470;-68
2022/08/27 02:41:32;;;;;;;0.20;0.20;;;;;;;18.23;77.69;100386.78;5128294;28;20047;-68
2022/08/27 02:43:57;;;;;;;0.22;0.22;;;;;;;18.25;77.42;100387.59;5128322;28;20045;-68
2022/08/27 02:46:23;;;;;;;0.20;0.20;;;;;;;18.22;77.33;100387.72;5128190;28;20058;-68
2022/08/27 02:48:48;;;;;;;0.20;0.20;;;;;;;18.18;77.40;100386.13;5127996;28;20035;-68
2022/08/27 02:51:14;;;;;;;0.40;0.40;;;;;;;18.15;77.63;100378.34;5128433;28;20075;-68
2022/08/27 02:53:39;;;;;;;0.70;0.70;;;;;;;18.12;77.27;100386.38;5128589;28;20501;-68
2022/08/27 02:56:06;;;;;;;0.20;0.20;;;;;;;18.11;77.61;100376.75;5128330;28;20023;-68
2022/08/27 02:58:32;;;;;;;0.30;0.30;;;;;;;18.08;77.19;100378.56;5128180;28;20020;-68
2022/08/27 03:01:00;;;;;;;0.20;0.20;;;;;;;18.06;77.52;100375.19;5128112;28;20023;-68
2022/08/27 03:03:26;;;;;;;0.30;0.30;;;;;;;18.02;77.65;100381.47;5127739;28;20027;-68
2022/08/27 03:05:52;;;;;;;0.28;0.28;;;;;;;17.99;77.60;100378.94;5128179;28;20019;-69
2022/08/27 03:08:17;;;;;;;0.95;0.73;;;;;;;17.96;78.04;100379.06;5128234;28;20023;-69
2022/08/27 03:10:42;;;;;;;0.20;0.20;;;;;;;17.96;78.65;100371.19;5127935;28;20080;-68
2022/08/27 03:13:08;;;;;;;0.20;0.20;;;;;;;17.98;79.00;100371.13;5127811;28;20020;-68
2022/08/27 03:15:33;;;;;;;0.30;0.30;;;;;;;17.99;79.49;100373.69;5127910;28;20087;-68
2022/08/27 03:18:17;;;;;;;0.35;0.35;;;;;;;17.99;79.74;100372.88;5127582;28;20058;-68
2022/08/27 03:20:43;;;;;;;0.30;0.30;;;;;;;17.97;80.46;100375.56;5127598;28;20019;-68
2022/08/27 03:23:10;;;;;;;0.32;0.32;;;;;;;17.96;80.86;100376.44;5127880;28;20027;-68
2022/08/27 03:25:37;;;;;;;0.30;0.30;;;;;;;17.93;81.57;100368.69;5127725;28;20028;-68
2022/08/27 03:28:03;;;;;;;0.40;0.40;;;;;;;17.90;82.16;100374.94;5109426;28;20038;-68
2022/08/27 03:30:29;;;;;;;0.40;0.40;;;;;;;17.90;82.61;100376.69;5126948;28;20080;-68
2022/08/27 03:32:54;;;;;;;0.30;0.30;;;;;;;17.91;82.73;100378.41;5127301;28;20047;-68
2022/08/27 03:35:21;;;;;;;0.25;0.25;;;;;;;17.92;83.30;100378.34;5127652;28;20034;-68
2022/08/27 03:37:46;;;;;;;0.32;0.32;;;;;;;17.92;83.42;100380.13;5127461;28;20028;-68
2022/08/27 03:40:13;;;;;;;1.55;0.63;;;;;;;17.94;83.37;100380.91;5108887;28;20038;-67
2022/08/27 03:42:40;;;;;;;0.45;0.45;;;;;;;17.94;83.68;100376.50;5127294;28;20112;-68
2022/08/27 03:45:07;;;;;;;0.38;0.38;;;;;;;17.99;84.14;100373.69;5127264;28;20122;-70
2022/08/27 03:47:33;;;;;;;0.30;0.30;;;;;;;18.00;83.95;100374.56;5127029;28;20031;-69
2022/08/27 03:49:59;;;;;;;0.22;0.22;;;;;;;18.03;84.20;100377.06;5127440;28;20038;-69
2022/08/27 03:52:25;;;;;;;0.25;0.25;;;;;;;17.96;84.41;100379.06;5127020;28;20023;-69
2022/08/27 03:54:50;;;;;;;0.30;0.30;;;;;;;17.90;84.90;100385.44;5127271;28;20019;-69
2022/08/27 03:57:16;;;;;;;0.50;0.50;;;;;;;17.88;84.76;100384.63;5127170;28;20035;-69
2022/08/27 03:59:41;;;;;;;0.40;0.40;;;;;;;17.85;84.81;100366.38;5126995;28;20020;-69
2022/08/27 04:02:07;;;;;;;0.30;0.30;;;;;;;17.90;84.91;100382.81;5108323;28;20015;-69
2022/08/27 04:04:32;;;;;;;0.43;0.43;;;;;;;17.92;85.26;100373.09;5127056;28;20065;-69
2022/08/27 04:06:58;;;;;;;0.30;0.30;;;;;;;17.97;85.28;100367.69;5127073;28;20026;-69
2022/08/27 04:09:24;;;;;;;0.30;0.30;;;;;;;18.03;85.06;100369.19;5127166;28;20035;-65
2022/08/27 04:11:49;;;;;;;0.70;0.70;;;;;;;18.06;85.00;100369.06;5126850;28;20034;-65
2022/08/27 04:14:15;;;;;;;0.68;0.68;;;;;;;18.08;84.89;100373.31;5126879;28;20023;-67
2022/08/27 04:16:40;;;;;;;5.28;1.30;;;;;;;18.09;85.06;100369.81;5126727;28;20020;-66
2022/08/27 04:19:07;;;;;;;0.30;0.30;;;;;;;18.09;84.88;100369.81;5126838;28;20551;-66
2022/08/27 04:21:34;;;;;;;0.30;0.30;;;;;;;18.11;85.02;100371.50;5126522;28;20031;-66
2022/08/27 04:24:00;;;;;;;0.60;0.60;;;;;;;18.13;85.03;100369.72;5126941;28;20027;-67
2022/08/27 04:26:27;;;;;;;0.20;0.20;;;;;;;18.17;84.79;100371.28;5108261;28;20047;-66
2022/08/27 04:28:54;;;;;;;0.95;0.95;;;;;;;18.22;84.61;100374.59;5126586;28;20027;-67
2022/08/27 04:31:20;;;;;;;0.50;0.50;;;;;;;18.23;84.84;100376.28;5126559;28;20305;-66
2022/08/27 04:33:46;;;;;;;0.40;0.40;;;;;;;18.25;84.41;100378.84;5126452;28;20051;-66
2022/08/27 04:36:13;;;;;;;0.77;0.60;;;;;;;18.25;84.52;100374.44;5126597;28;20374;-67
2022/08/27 04:38:38;;;;;;;0.93;0.63;;;;;;;18.27;84.63;100366.50;5126505;28;20016;-67
2022/08/27 04:41:18;;;;;;;0.55;0.55;;;;;;;18.38;84.36;100380.06;5126235;28;20092;-68
2022/08/27 04:44:08;;;;;;;0.30;0.30;;;;;;;18.51;84.12;100379.53;5125774;28;20020;-67
2022/08/27 04:46:36;;;;;;;0.40;0.40;;;;;;;18.60;83.98;100378.28;5107699;28;20048;-66
2022/08/27 04:49:06;;;;;;;0.30;0.30;;;;;;;18.68;83.02;100374.41;5126102;28;20075;-68
2022/08/27 04:51:32;;;;;;;0.60;0.60;;;;;;;18.67;82.95;100374.47;5126152;28;20031;-68
2022/08/27 04:54:00;;;;;;;0.30;0.30;;;;;;;18.66;82.82;100378.00;5126525;28;20035;-68
2022/08/27 04:56:26;;;;;;;0.40;0.40;;;;;;;18.63;82.93;100368.50;5126012;28;20431;-68
2022/08/27 04:58:51;;;;;;;0.63;0.63;;;;;;;18.67;82.74;100374.47;5126281;28;20066;-68
2022/08/27 05:01:20;;;;;;;0.30;0.30;;;;;;;18.69;82.91;100377.91;5125851;28;20023;-68
2022/08/27 05:03:45;;;;;;;0.40;0.40;;;;;;;18.67;82.77;100369.22;5125998;28;20028;-69
2022/08/27 05:06:11;;;;;;;0.30;0.30;;;;;;;18.78;82.66;100372.25;5126187;28;20185;-67
2022/08/27 05:08:38;;;;;;;0.65;0.65;;;;;;;18.81;82.82;100356.34;5107631;28;20023;-69
2022/08/27 05:11:06;;;;;;;0.30;0.30;;;;;;;18.88;82.86;100362.16;5126050;28;20026;-68
2022/08/27 05:13:31;;;;;;;0.20;0.20;;;;;;;19.01;82.88;100362.47;5126130;28;20024;-68
2022/08/27 05:16:03;;;;;;;0.22;0.22;;;;;;;19.17;82.70;100356.56;5125928;28;20084;-68
2022/08/27 05:18:29;;;;;;;;;;;;;;;19.35;81.89;100367.16;5126431;28;20364;-69
2022/08/27 05:20:55;;;;;;;0.60;0.60;;;;;;;19.31;81.82;100356.75;5125930;28;20389;-69
2022/08/27 05:23:21;;;;;;;0.20;0.20;;;;;;;19.42;82.18;100355.44;5107576;28;20383;-68
2022/08/27 05:25:48;;;;;;;0.30;0.30;;;;;;;19.50;81.52;100360.34;5125786;28;20019;-69
2022/08/27 05:28:17;;;;;;;0.20;0.20;;;;;;;19.54;81.65;100356.63;5126096;28;20258;-68
2022/08/27 05:30:46;;;;;;;0.20;0.20;;;;;;;19.66;82.03;100363.09;5125594;28;20054;-68
2022/08/27 05:33:14;;;;;;;1.65;1.15;;;;;;;19.85;81.83;100367.47;5125593;28;20023;-68
2022/08/27 05:35:49;;;;;;;0.30;0.30;;;;;;;19.99;81.13;100366.81;5125877;28;20027;-67
2022/08/27 05:38:17;;;;;;;0.20;0.20;;;;;;;20.11;81.06;100368.88;5125832;28;20038;-68
2022/08/27 05:40:43;;;;;;;4.47;2.08;;;;;;;20.23;81.01;100362.16;5125660;28;20020;-69
2022/08/27 05:43:09;;;;;;;0.30;0.30;;;;;;;20.37;80.74;100360.59;5125909;28;20047;-68
2022/08/27 05:45:41;;;;;;;1.33;1.25;;;;;;;20.46;80.75;100373.31;5125560;28;20051;-69
2022/08/27 05:48:07;;;;;;;0.30;0.30;;;;;;;20.54;79.99;100372.94;5125402;28;20055;-67
2022/08/27 05:50:32;;;;;;;0.20;0.20;;;;;;;20.58;79.80;100368.34;5107258;28;20028;-68
2022/08/27 05:52:58;;;;;;;0.20;0.20;;;;;;;20.61;79.27;100365.53;5125744;28;20026;-68
2022/08/27 05:55:24;;;;;;;0.45;0.35;;;;;;;20.56;79.01;100366.63;5129610;28;20022;-69
2022/08/27 05:57:49;;;;;;;0.20;0.20;;;;;;;20.54;79.07;100371.13;5129497;28;20161;-68
2022/08/27 06:02:58;;;;;;;0.20;0.20;;;;;;;20.65;78.80;100362.69;5129114;28;20405;-68
2022/08/27 06:05:24;;;;;;;0.20;0.20;;;;;;;20.74;78.96;100358.72;5129472;28;20043;-68
2022/08/27 06:07:49;;;;;;;0.40;0.40;;;;;;;20.84;78.71;100353.81;5129265;28;20038;-67
2022/08/27 06:10:14;;;;;;;0.20;0.20;;;;;;;20.95;78.92;100352.41;5129318;28;20023;-67
2022/08/27 06:12:40;;;;;;;0.20;0.20;;;;;;;21.07;78.52;100356.19;5129180;28;20031;-69
2022/08/27 06:15:06;;;;;;;0.25;0.25;;;;;;;21.23;78.60;100357.06;5129279;28;20087;-68
2022/08/27 06:17:31;;;;;;;0.20;0.20;;;;;;;21.33;77.98;100356.53;5128738;28;20339;-68
2022/08/27 06:19:56;;;;;;;0.30;0.30;;;;;;;21.32;77.68;100355.72;5129113;28;20479;-68
2022/08/27 06:22:22;;;;;;;0.22;0.22;;;;;;;21.28;77.62;100352.38;5128881;28;20044;-68
2022/08/27 06:24:48;;;;;;;0.20;0.20;;;;;;;21.24;77.54;100363.19;5128974;28;20028;-68
2022/08/27 06:27:15;;;;;;;0.20;0.20;;;;;;;21.22;77.44;100351.84;5110591;28;20023;-68
2022/08/27 06:29:41;;;;;;;0.20;0.20;;;;;;;21.23;77.54;100351.78;5128786;28;20050;-68
2022/08/27 06:32:08;;;;;;;0.20;0.20;;;;;;;21.25;77.48;100357.81;5128658;28;20027;-68
2022/08/27 06:34:34;;;;;;;0.20;0.20;;;;;;;21.39;77.71;100357.06;5110645;28;20024;-68
2022/08/27 06:37:00;;;;;;;0.52;0.52;;;;;;;21.45;77.32;100344.47;5128889;28;20020;-68
2022/08/27 06:39:26;;;;;;;0.30;0.30;;;;;;;21.48;76.33;100353.09;5128648;28;20467;-68
2022/08/27 06:41:52;;;;;;;0.20;0.20;;;;;;;21.39;75.87;100364.16;5128478;28;20045;-67
2022/08/27 06:44:18;;;;;;;0.30;0.30;;;;;;;21.34;75.69;100363.56;5128670;28;20027;-69
2022/08/27 06:46:43;;;;;;;0.20;0.20;;;;;;;21.26;75.79;100363.97;5128597;28;20469;-69
2022/08/27 06:49:10;;;;;;;0.30;0.30;;;;;;;21.24;75.78;100352.63;5128500;28;20026;-68
2022/08/27 06:51:38;;;;;;;0.20;0.20;;;;;;;21.20;75.59;100340.53;5128483;28;20024;-69
2022/08/27 06:54:06;;;;;;;0.20;0.20;;;;;;;21.24;75.61;100352.63;5110122;28;20532;-68
2022/08/27 06:56:32;;;;;;;0.20;0.20;;;;;;;21.27;75.84;100348.03;5128284;28;20073;-69
2022/08/27 06:59:01;;;;;;;0.20;0.20;;;;;;;21.38;76.00;100354.50;5128353;28;20381;-68
2022/08/27 07:01:35;;;;;;;0.20;0.20;;;;;;;21.44;75.59;100353.34;5128021;28;20031;-68
2022/08/27 07:04:04;;;;;;;0.20;0.20;;;;;;;21.52;75.52;100351.09;5128035;28;20027;-69
2022/08/27 07:06:30;;;;;;;1.58;1.48;;;;;;;21.62;75.23;100356.72;5127289;28;20090;-69
2022/08/27 07:08:56;;;;;;;0.20;0.20;;;;;;;21.70;75.46;100353.66;5109769;28;20062;-68
2022/08/27 07:11:22;;;;;;;0.20;0.20;;;;;;;21.80;75.47;100349.59;5109442;28;20020;-69
2022/08/27 07:13:49;;;;;;;0.50;0.50;;;;;;;21.88;75.44;100346.53;5128372;28;20087;-69
2022/08/27 07:16:18;;;;;;;0.30;0.30;;;;;;;21.93;75.26;100349.75;5128230;28;20038;-68
2022/08/27 07:18:44;;;;;;;0.20;0.20;;;;;;;21.99;74.96;100352.03;5127727;28;20028;-69
2022/08/27 07:21:10;;;;;;;0.30;0.30;;;;;;;22.09;75.24;100349.72;5109508;28;20027;-69
2022/08/27 07:23:37;;;;;;;0.20;0.20;;;;;;;22.16;74.64;100355.47;5127781;28;20023;-69
2022/08/27 07:26:11;;;;;;;0.82;0.80;;;;;;;22.18;73.92;100364.19;5109873;28;20027;-69
2022/08/27 07:28:37;;;;;;;0.20;0.20;;;;;;;22.16;73.64;100351.06;5128023;28;20028;-69
2022/08/27 07:31:04;;;;;;;0.30;0.30;;;;;;;22.18;73.55;100353.59;5127644;28;20467;-69
2022/08/27 07:33:30;;;;;;;0.20;0.20;;;;;;;22.20;73.74;100358.81;5127689;28;20092;-68
2022/08/27 07:35:55;;;;;;;0.20;0.20;;;;;;;22.20;73.47;100356.16;5127661;28;20023;-69
2022/08/27 07:38:21;;;;;;;0.20;0.20;;;;;;;22.23;73.82;100355.97;5127516;28;20023;-69
2022/08/27 07:40:46;;;;;;;0.20;0.20;;;;;;;22.28;73.78;100365.34;5127424;28;20099;-69
2022/08/27 07:45:56;;;;;;;0.20;0.20;;;;;;;22.14;73.15;100363.50;5127423;28;20576;-69
2022/08/27 07:48:22;;;;;;;0.20;0.20;;;;;;;22.09;73.17;100362.94;5127105;28;20023;-69
2022/08/27 07:50:48;;;;;;;0.20;0.20;;;;;;;21.97;72.65;100364.47;5127282;28;20027;-69
2022/08/27 07:53:14;;;;;;;0.63;0.63;;;;;;;21.84;72.45;100363.50;5127066;28;20024;-68
2022/08/27 07:55:39;;;;;;;0.55;0.55;;;;;;;21.71;72.23;100372.06;5127021;28;20079;-69
2022/08/27 07:58:06;;;;;;;2.20;2.10;;;;;;;21.60;72.38;100370.03;5127407;28;20083;-68
2022/08/27 08:00:32;;;;;;;0.20;0.20;;;;;;;21.50;72.22;100380.25;5127058;28;20030;-69
2022/08/27 08:02:59;;;;;;;0.20;0.20;;;;;;;21.44;72.24;100382.38;5126569;28;20350;-69
2022/08/27 08:05:25;;;;;;;0.73;0.73;;;;;;;21.40;72.32;100381.69;5126848;28;20120;-68
2022/08/27 08:07:50;;;;;;;0.20;0.20;;;;;;;21.38;72.41;100399.41;5127373;28;20027;-68
2022/08/27 08:10:18;;;;;;;0.20;0.20;;;;;;;21.37;72.49;100401.22;5127040;28;20102;-70
2022/08/27 08:12:44;;;;;;;0.20;0.20;;;;;;;21.36;72.09;100396.00;5126764;28;20016;-68
2022/08/27 08:15:11;;;;;;;0.65;0.65;;;;;;;21.33;72.18;100404.94;5127244;28;20030;-68
2022/08/27 08:17:37;;;;;;;0.20;0.20;;;;;;;21.34;71.78;100405.78;5126547;28;20128;-68
2022/08/27 08:20:06;;;;;;;1.00;1.00;;;;;;;21.24;72.06;100408.94;5126927;28;20055;-68
2022/08/27 08:22:32;;;;;;;14.35;2.40;;;;;;;21.13;72.25;100404.22;5126611;28;20095;-68
2022/08/27 08:24:57;;;;;;;0.50;0.50;;;;;;;21.10;72.39;100417.59;5126872;28;20030;-68
2022/08/27 08:27:23;;;;;;;3.92;2.40;;;;;;;21.17;72.40;100415.47;5126667;28;20031;-68
2022/08/27 08:29:49;;;;;;;1.75;1.27;;;;;;;21.15;72.59;100412.06;5126908;28;20478;-69
2022/08/27 08:32:16;;;;;;;0.22;0.22;;;;;;;21.16;72.14;100413.75;5126277;28;20024;-66
2022/08/27 08:34:41;;;;;;;0.20;0.20;;;;;;;21.17;72.33;100415.47;5126676;28;20015;-71
2022/08/27 08:37:07;;;;;;;0.73;0.73;;;;;;;21.21;72.46;100427.59;5126475;28;20042;-72
2022/08/27 08:39:34;;;;;;;0.68;0.68;;;;;;;21.23;72.15;100425.69;5126568;28;20023;-67
2022/08/27 08:42:02;;;;;;;0.45;0.45;;;;;;;21.21;72.48;100424.06;5126471;28;20024;-67
2022/08/27 08:44:42;;;;;;;0.30;0.30;;;;;;;21.20;72.52;100425.84;5126475;28;20111;-68
2022/08/27 08:47:22;;;;;;;0.77;0.77;;;;;;;21.17;72.54;100436.56;5108043;28;20042;-67
2022/08/27 08:49:48;;;;;;;0.50;0.50;;;;;;;21.07;73.05;100427.44;5126285;28;20103;-68
2022/08/27 08:52:28;;;;;;;0.20;0.20;;;;;;;20.97;73.31;100430.56;5126127;28;20020;-69
2022/08/27 08:55:00;;;;;;;0.20;0.20;;;;;;;20.99;73.29;100436.59;5126237;28;20042;-69
2022/08/27 08:57:31;;;;;;;;;;;;;;;21.13;73.64;100440.31;5108316;28;20028;-69
2022/08/27 09:00:23;;;;;;;0.20;0.20;;;;;;;21.03;74.11;100439.94;5126485;28;19908;-68
2022/08/27 09:02:56;;;;;;;0.35;0.35;;;;;;;20.92;74.47;100444.00;5121787;28;20111;-68
2022/08/27 09:05:24;;;;;;;0.20;0.20;;;;;;;20.92;74.63;100441.38;5125911;28;20106;-69
2022/08/27 09:08:02;;;;;;;0.43;0.43;;;;;;;20.98;74.62;100439.31;5107417;28;20019;-72
2022/08/27 09:10:33;;;;;;;0.20;0.20;;;;;;;21.07;74.83;100435.38;5126077;28;20024;-70
2022/08/27 09:13:04;;;;;;;0.57;0.57;;;;;;;20.95;75.27;100437.72;5125751;28;20106;-75
2022/08/27 09:15:33;;;;;;;0.20;0.20;;;;;;;20.90;75.36;100443.19;5107900;28;20326;-74
2022/08/27 09:18:11;;;;;;;0.20;0.20;;;;;;;20.84;76.17;100447.94;5107353;28;20027;-73
2022/08/27 09:20:38;;;;;;;0.25;0.25;;;;;;;20.84;76.24;100442.66;5126026;28;20047;-71
2022/08/27 09:23:20;;;;;;;1.75;1.48;;;;;;;20.85;75.72;100439.94;5125870;28;20088;-71
2022/08/27 09:25:46;;;;;;;0.60;0.60;;;;;;;20.77;76.13;100436.81;5125444;28;20023;-72
2022/08/27 09:31:16;;;;;;;0.30;0.30;;;;;;;20.59;76.57;100438.63;5130382;28;20038;-72
2022/08/27 09:33:41;;;;;;;0.20;0.20;;;;;;;20.60;76.80;100427.13;5130002;28;20069;-71
2022/08/27 09:36:10;;;;;;;0.38;0.38;;;;;;;20.70;76.70;100438.94;5111677;28;20491;-71
2022/08/27 09:38:39;;;;;;;0.40;0.40;;;;;;;20.72;76.81;100433.59;5129864;28;20023;-70
2022/08/27 09:41:08;;;;;;;0.20;0.20;;;;;;;20.77;76.67;100435.06;5129976;28;20028;-71
2022/08/27 09:43:35;;;;;;;0.20;0.20;;;;;;;20.90;76.81;100437.06;5129963;28;20034;-72
2022/08/27 09:46:06;;;;;;;0.20;0.20;;;;;;;20.98;76.65;100436.69;5111046;28;20067;-72
2022/08/27 09:48:34;;;;;;;0.20;0.20;;;;;;;21.13;76.22;100430.63;5129683;28;20020;-72
2022/08/27 09:51:08;;;;;;;0.20;0.20;;;;;;;21.24;76.07;100429.19;5129531;28;20083;-71
2022/08/27 09:53:51;;;;;;;0.20;0.20;;;;;;;21.37;76.04;100432.03;5129499;28;20079;-71
2022/08/27 09:56:22;;;;;;;0.60;0.60;;;;;;;21.48;75.83;100428.81;5129600;28;20028;-73
2022/08/27 09:59:01;;;;;;;3.05;1.48;;;;;;;21.61;75.71;100424.56;5129851;28;20079;-72
2022/08/27 10:01:33;;;;;;;0.38;0.38;;;;;;;21.63;75.49;100422.69;5129197;28;20509;-72
2022/08/27 10:04:03;;;;;;;0.30;0.30;;;;;;;21.72;75.82;100421.34;5129199;28;20091;-72
2022/08/27 10:06:30;;;;;;;0.20;0.20;;;;;;;21.86;75.56;100427.66;5129309;28;20027;-73
2022/08/27 10:09:01;;;;;;;0.20;0.20;;;;;;;21.90;75.22;100421.28;5129535;28;20028;-72
2022/08/27 10:11:34;;;;;;;0.20;0.20;;;;;;;21.98;74.42;100424.31;5129376;28;20031;-72
2022/08/27 10:14:13;;;;;;;0.20;0.20;;;;;;;21.97;74.63;100430.56;5129395;28;20255;-72
2022/08/27 10:16:56;;;;;;;1.27;1.17;;;;;;;21.96;74.31;100423.56;5129396;28;20046;-72
2022/08/27 10:19:34;;;;;;;0.20;0.20;;;;;;;22.03;74.31;100424.06;5129093;28;20076;-73
2022/08/27 10:22:18;;;;;;;0.28;0.28;;;;;;;22.06;74.51;100428.34;5129493;28;20474;-72
2022/08/27 10:25:01;;;;;;;0.20;0.20;;;;;;;22.10;73.94;100421.94;5129319;28;20024;-72
2022/08/27 10:27:38;;;;;;;0.20;0.20;;;;;;;22.04;73.59;100423.97;5129211;28;20016;-72
2022/08/27 10:30:03;;;;;;;0.57;0.57;;;;;;;21.93;74.14;100429.03;5129328;28;20015;-72
2022/08/27 10:32:38;;;;;;;0.43;0.43;;;;;;;21.97;73.91;100422.63;5128608;28;20062;-71
2022/08/27 10:35:41;;;;;;;0.20;0.20;;;;;;;22.01;73.98;100426.78;5129361;28;20054;-72
2022/08/27 10:38:40;;;;;;;0.75;0.75;;;;;;;22.07;73.91;100414.16;5128815;28;20078;-72
2022/08/27 10:41:11;;;;;;;0.25;0.25;;;;;;;22.22;73.79;100420.38;5097776;28;20139;-72
2022/08/27 10:43:55;;;;;;;0.20;0.20;;;;;;;22.31;73.78;100426.94;5129576;28;20077;-72
2022/08/27 10:46:44;;;;;;;5.15;1.55;;;;;;;22.32;73.07;100424.19;5128600;28;20096;-72
2022/08/27 10:49:23;;;;;;;0.20;0.20;;;;;;;22.25;72.67;100421.03;5128370;28;20073;-72
2022/08/27 10:52:03;;;;;;;0.30;0.30;;;;;;;22.28;72.99;100418.22;5128840;28;20023;-72
2022/08/27 10:54:52;;;;;;;0.20;0.20;;;;;;;22.29;73.05;100414.66;5128730;28;20024;-73
2022/08/27 10:57:40;;;;;;;0.20;0.20;;;;;;;22.43;73.02;100423.56;5110346;28;20016;-72
2022/08/27 11:00:12;;;;;;;0.82;0.82;;;;;;;22.48;72.60;100423.28;5088349;28;20478;-72
2022/08/27 11:02:47;;;;;;;0.20;0.20;;;;;;;22.43;71.49;100407.69;5109633;28;20165;-72
2022/08/27 11:05:18;;;;;;;0.95;0.95;;;;;;;22.32;71.83;100410.13;5110236;28;20027;-71
2022/08/27 11:07:50;;;;;;;0.20;0.20;;;;;;;22.36;71.69;100416.94;5128247;28;20052;-72
2022/08/27 11:10:26;;;;;;;0.20;0.20;;;;;;;22.47;71.68;100426.88;5128467;28;20031;-72
2022/08/27 11:12:57;;;;;;;0.20;0.20;;;;;;;22.48;71.04;100420.66;5128216;28;20022;-72
2022/08/27 11:15:28;;;;;;;0.40;0.40;;;;;;;22.49;70.60;100419.72;5128217;28;20078;-73
2022/08/27 11:18:14;;;;;;;0.20;0.20;;;;;;;22.50;70.35;100422.28;5128020;28;20083;-72
2022/08/27 11:20:46;;;;;;;0.60;0.60;;;;;;;22.49;70.46;100411.78;5128262;28;20050;-71
2022/08/27 11:23:39;;;;;;;0.20;0.20;;;;;;;22.61;70.88;100424.31;5127968;28;20020;-72
2022/08/27 11:26:05;;;;;;;0.38;0.38;;;;;;;22.66;70.28;100421.41;5100890;28;20031;-74
2022/08/27 11:28:37;;;;;;;0.20;0.20;;;;;;;22.57;70.36;100416.63;5109601;28;20051;-72
2022/08/27 11:31:28;;;;;;;1.20;0.63;;;;;;;22.69;70.33;100423.00;5127999;28;20038;-72
2022/08/27 11:34:26;;;;;;;0.77;0.77;;;;;;;22.94;70.57;100419.72;5127557;28;20019;-71
2022/08/27 11:37:22;;;;;;;0.45;0.45;;;;;;;23.03;69.66;100424.47;5127934;28;20244;-71
2022/08/27 11:40:17;;;;;;;0.40;0.40;;;;;;;23.03;69.65;100421.81;5127782;28;20035;-73
2022/08/27 11:42:43;;;;;;;0.20;0.20;;;;;;;23.01;69.64;100414.91;5127484;28;20035;-71
2022/08/27 11:45:15;;;;;;;0.68;0.68;;;;;;;22.94;69.39;100414.44;5127420;28;20043;-71
2022/08/27 11:47:54;;;;;;;0.30;0.30;;;;;;;22.90;68.67;100413.78;5127040;28;20023;-71